createdAt,value
2019-05-06T00:00:07.070Z,8.50
2019-05-06T00:02:39.006Z,8.50
2019-05-06T00:05:10.318Z,8.50
2019-05-06T00:07:44.195Z,8.50
2019-05-06T00:10:26.402Z,8.60
2019-05-06T00:12:57.048Z,8.50
2019-05-06T00:15:29.054Z,8.50
2019-05-06T00:17:59.502Z,8.50
2019-05-06T00:20:30.017Z,8.40
2019-05-06T00:23:04.095Z,8.40
2019-05-06T00:25:41.558Z,8.40
2019-05-06T00:28:28.381Z,8.40
2019-05-06T00:31:12.011Z,8.30
2019-05-06T00:33:34.137Z,8.30
2019-05-06T00:36:06.017Z,8.40
2019-05-06T00:38:37.859Z,8.40
2019-05-06T00:41:09.786Z,8.40
2019-05-06T00:43:40.253Z,8.50
2019-05-06T00:46:10.994Z,8.40
2019-05-06T00:48:41.425Z,8.40
2019-05-06T00:51:13.536Z,8.40
2019-05-06T00:53:51.906Z,8.40
2019-05-06T00:56:24.450Z,8.40
2019-05-06T00:58:54.919Z,8.40
2019-05-06T01:01:29.424Z,8.40
2019-05-06T01:03:57.286Z,8.40
2019-05-06T01:06:27.638Z,8.40
2019-05-06T01:08:58.036Z,8.40
2019-05-06T01:11:28.438Z,8.50
2019-05-06T01:14:01.419Z,8.50
2019-05-06T01:16:31.952Z,8.50
2019-05-06T01:19:04.527Z,8.60
2019-05-06T01:21:35.768Z,8.50
2019-05-06T01:24:09.249Z,8.50
2019-05-06T01:26:40.608Z,8.60
2019-05-06T01:29:11.008Z,8.60
2019-05-06T01:31:43.788Z,8.50
2019-05-06T01:34:13.793Z,8.50
2019-05-06T01:36:44.373Z,8.40
2019-05-06T01:39:16.373Z,8.40
2019-05-06T01:41:48.297Z,8.50
2019-05-06T01:44:18.729Z,8.50
2019-05-06T01:46:49.086Z,8.40
2019-05-06T01:49:19.497Z,8.40
2019-05-06T01:51:49.881Z,8.50
2019-05-06T01:54:20.312Z,8.40
2019-05-06T01:56:50.662Z,8.40
2019-05-06T01:59:21.086Z,8.30
2019-05-06T02:01:58.123Z,8.30
2019-05-06T02:04:24.452Z,8.40
2019-05-06T02:06:55.019Z,8.40
2019-05-06T02:09:25.435Z,8.40
2019-05-06T02:11:55.785Z,8.40
2019-05-06T02:14:26.199Z,8.40
2019-05-06T02:16:56.557Z,8.40
2019-05-06T02:19:26.982Z,8.40
2019-05-06T02:22:01.838Z,8.40
2019-05-06T02:24:53.990Z,8.40
2019-05-06T02:27:26.906Z,8.40
2019-05-06T02:29:58.878Z,8.40
2019-05-06T02:32:49.272Z,8.50
2019-05-06T02:35:21.285Z,8.40
2019-05-06T02:37:51.639Z,8.50
2019-05-06T02:40:32.967Z,8.50
2019-05-06T02:43:03.343Z,8.50
2019-05-06T02:45:33.654Z,8.60
2019-05-06T02:48:13.746Z,8.50
2019-05-06T02:50:45.155Z,8.50
2019-05-06T02:53:17.135Z,8.40
2019-05-06T02:55:48.558Z,8.50
2019-05-06T02:58:18.959Z,8.40
2019-05-06T03:00:49.389Z,8.30
2019-05-06T03:03:23.039Z,8.30
2019-05-06T03:05:53.241Z,8.30
2019-05-06T03:08:24.140Z,8.30
2019-05-06T03:10:54.549Z,8.20
2019-05-06T03:13:24.909Z,8.20
2019-05-06T03:15:55.332Z,8.20
2019-05-06T03:18:25.735Z,8.20
2019-05-06T03:20:57.683Z,8.20
2019-05-06T03:23:29.653Z,8.10
2019-05-06T03:26:00.044Z,8.10
2019-05-06T03:28:33.108Z,8.20
2019-05-06T03:31:06.998Z,8.10
2019-05-06T03:33:49.758Z,8.10
2019-05-06T03:36:16.668Z,8.10
2019-05-06T03:38:38.555Z,8.10
2019-05-06T03:41:08.913Z,8.10
2019-05-06T03:43:43.227Z,8.00
2019-05-06T03:46:14.445Z,8.10
2019-05-06T03:49:03.688Z,8.10
2019-05-06T03:51:34.584Z,8.10
2019-05-06T03:54:05.645Z,8.10
2019-05-06T03:56:38.364Z,8.00
2019-05-06T03:59:13.200Z,8.00
2019-05-06T04:01:43.060Z,8.00
2019-05-06T04:04:13.730Z,8.10
2019-05-06T04:06:44.261Z,8.00
2019-05-06T04:09:14.671Z,8.00
2019-05-06T04:11:45.879Z,8.00
2019-05-06T04:14:18.255Z,8.00
2019-05-06T04:16:53.429Z,8.00
2019-05-06T04:19:33.493Z,8.10
2019-05-06T04:22:06.036Z,8.00
2019-05-06T04:24:37.124Z,8.00
2019-05-06T04:27:29.687Z,8.10
2019-05-06T04:30:00.136Z,8.00
2019-05-06T04:32:33.842Z,8.20
2019-05-06T04:35:04.349Z,8.20
2019-05-06T04:37:34.685Z,8.20
2019-05-06T04:40:06.738Z,8.20
2019-05-06T04:42:37.283Z,8.30
2019-05-06T04:45:07.918Z,8.30
2019-05-06T04:47:38.468Z,8.40
2019-05-06T04:50:09.050Z,8.40
2019-05-06T04:52:39.555Z,8.50
2019-05-06T04:55:13.722Z,8.60
2019-05-06T04:57:44.340Z,8.70
2019-05-06T05:00:15.167Z,8.80
2019-05-06T05:02:46.432Z,8.70
2019-05-06T05:05:17.360Z,8.80
2019-05-06T05:07:47.817Z,8.70
2019-05-06T05:10:19.931Z,8.90
2019-05-06T05:12:55.072Z,8.80
2019-05-06T05:15:32.811Z,8.80
2019-05-06T05:18:12.886Z,8.80
2019-05-06T05:20:46.483Z,8.90
2019-05-06T05:23:14.954Z,9.00
2019-05-06T05:25:45.398Z,9.00
2019-05-06T05:28:15.747Z,8.90
2019-05-06T05:30:46.263Z,8.90
2019-05-06T05:33:16.614Z,9.00
2019-05-06T05:35:47.140Z,8.90
2019-05-06T05:38:19.542Z,9.00
2019-05-06T05:40:49.954Z,8.90
2019-05-06T05:43:22.751Z,9.00
2019-05-06T05:45:54.763Z,8.90
2019-05-06T05:48:29.861Z,8.90
2019-05-06T05:51:00.362Z,9.00
2019-05-06T05:53:32.839Z,8.90
2019-05-06T05:56:03.045Z,9.00
2019-05-06T05:58:33.591Z,9.20
2019-05-06T06:01:04.248Z,9.40
2019-05-06T06:03:34.860Z,9.40
2019-05-06T06:06:05.379Z,9.60
2019-05-06T06:08:37.046Z,9.70
2019-05-06T06:11:15.058Z,9.80
2019-05-06T06:13:45.423Z,9.80
2019-05-06T06:16:20.622Z,10.00
2019-05-06T06:18:58.571Z,10.20
2019-05-06T06:21:36.583Z,10.60
2019-05-06T06:24:22.543Z,11.20
2019-05-06T06:26:52.893Z,11.10
2019-05-06T06:29:23.242Z,10.80
2019-05-06T06:31:55.252Z,10.50
2019-05-06T06:34:27.191Z,10.10
2019-05-06T06:37:15.378Z,10.10
2019-05-06T06:39:47.317Z,10.30
2019-05-06T06:42:17.773Z,10.10
2019-05-06T06:44:48.312Z,10.00
2019-05-06T06:47:18.825Z,10.00
2019-05-06T06:49:49.225Z,9.90
2019-05-06T06:52:19.855Z,10.00
2019-05-06T06:54:52.478Z,10.00
2019-05-06T06:57:23.832Z,10.20
2019-05-06T07:00:00.210Z,10.30
2019-05-06T07:02:38.915Z,10.40
2019-05-06T07:05:24.832Z,10.60
2019-05-06T07:07:47.481Z,10.50
2019-05-06T07:10:34.302Z,10.70
2019-05-06T07:13:04.722Z,10.70
2019-05-06T07:15:35.096Z,11.00
2019-05-06T07:18:05.529Z,11.10
2019-05-06T07:20:43.540Z,11.30
2019-05-06T07:23:33.975Z,11.50
2019-05-06T07:26:04.801Z,11.80
2019-05-06T07:28:35.171Z,12.20
2019-05-06T07:31:18.660Z,12.80
2019-05-06T07:33:42.965Z,13.20
2019-05-06T07:36:14.490Z,13.30
2019-05-06T07:38:52.791Z,14.40
2019-05-06T07:41:36.181Z,14.60
2019-05-06T07:44:12.823Z,13.50
2019-05-06T07:46:44.057Z,13.40
2019-05-06T07:49:14.466Z,13.80
2019-05-06T07:51:44.882Z,13.80
2019-05-06T07:54:15.300Z,13.10
2019-05-06T07:56:45.735Z,13.50
2019-05-06T07:59:17.686Z,13.80
2019-05-06T08:01:49.425Z,14.40
2019-05-06T08:04:22.929Z,13.80
2019-05-06T08:06:52.963Z,13.50
2019-05-06T08:09:23.397Z,14.10
2019-05-06T08:11:53.837Z,14.60
2019-05-06T08:14:25.941Z,14.70
2019-05-06T08:17:06.739Z,15.20
2019-05-06T08:19:37.156Z,14.90
2019-05-06T08:22:09.198Z,15.10
2019-05-06T08:24:41.839Z,15.40
2019-05-06T08:27:12.378Z,15.60
2019-05-06T08:29:43.102Z,16.10
2019-05-06T08:32:13.459Z,16.00
2019-05-06T08:34:43.978Z,16.10
2019-05-06T08:37:17.640Z,15.90
2019-05-06T08:39:48.062Z,15.70
2019-05-06T08:42:18.418Z,15.60
2019-05-06T08:44:48.799Z,15.50
2019-05-06T08:47:19.228Z,15.30
2019-05-06T08:50:09.446Z,15.00
2019-05-06T08:52:57.595Z,15.30
2019-05-06T08:55:32.666Z,15.20
2019-05-06T08:58:03.352Z,15.40
2019-05-06T09:00:35.288Z,15.60
2019-05-06T09:03:05.728Z,15.50
2019-05-06T09:05:36.095Z,15.90
2019-05-06T09:08:06.639Z,15.90
2019-05-06T09:10:37.004Z,15.80
2019-05-06T09:13:07.444Z,15.70
2019-05-06T09:15:37.811Z,15.70
2019-05-06T09:18:08.232Z,15.40
2019-05-06T09:20:38.602Z,15.10
2019-05-06T09:23:12.381Z,15.10
2019-05-06T09:25:42.543Z,15.10
2019-05-06T09:28:17.258Z,15.10
2019-05-06T09:30:52.546Z,14.80
2019-05-06T09:33:24.667Z,15.00
2019-05-06T09:35:55.036Z,14.80
2019-05-06T09:38:25.470Z,14.70
2019-05-06T09:40:55.898Z,14.90
2019-05-06T09:43:26.311Z,14.50
2019-05-06T09:45:56.743Z,14.70
2019-05-06T09:48:45.200Z,14.90
2019-05-06T09:51:15.728Z,14.90
2019-05-06T09:54:04.290Z,15.10
2019-05-06T09:56:39.561Z,15.10
2019-05-06T09:59:09.963Z,15.40
2019-05-06T10:01:40.331Z,15.30
2019-05-06T10:04:12.955Z,15.40
2019-05-06T10:06:55.618Z,15.40
2019-05-06T10:09:16.270Z,15.50
2019-05-06T10:11:46.347Z,15.60
2019-05-06T10:14:16.802Z,15.40
2019-05-06T10:16:47.192Z,15.50
2019-05-06T10:19:17.615Z,15.50
2019-05-06T10:21:47.971Z,15.60
2019-05-06T10:24:18.521Z,15.60
2019-05-06T10:26:53.539Z,15.70
2019-05-06T10:29:37.540Z,15.80
2019-05-06T10:32:27.633Z,16.00
2019-05-06T10:34:58.103Z,16.10
2019-05-06T10:37:33.567Z,15.70
2019-05-06T10:40:09.580Z,15.70
2019-05-06T10:42:48.668Z,16.00
2019-05-06T10:45:27.590Z,15.90
2019-05-06T10:47:58.455Z,15.80
2019-05-06T10:50:30.442Z,16.00
2019-05-06T10:53:17.760Z,16.20
2019-05-06T10:55:55.498Z,16.40
2019-05-06T10:58:25.959Z,16.10
2019-05-06T11:01:17.215Z,15.90
2019-05-06T11:03:47.575Z,16.10
2019-05-06T11:06:18.011Z,16.20
2019-05-06T11:08:48.403Z,16.10
2019-05-06T11:11:31.629Z,16.20
2019-05-06T11:13:52.248Z,16.30
2019-05-06T11:16:23.648Z,16.20
2019-05-06T11:18:54.641Z,16.40
2019-05-06T11:21:25.151Z,16.10
2019-05-06T11:23:55.504Z,16.20
2019-05-06T11:26:25.979Z,16.50
2019-05-06T11:28:57.907Z,16.60
2019-05-06T11:31:30.039Z,16.70
2019-05-06T11:34:13.850Z,16.80
2019-05-06T11:36:46.157Z,16.70
2019-05-06T11:39:17.530Z,16.60
2019-05-06T11:42:01.606Z,16.50
2019-05-06T11:44:19.981Z,16.60
2019-05-06T11:46:52.324Z,16.60
2019-05-06T11:49:23.302Z,16.60
2019-05-06T11:51:54.227Z,16.60
2019-05-06T11:54:24.855Z,16.70
2019-05-06T11:56:58.461Z,17.00
2019-05-06T11:59:28.522Z,17.30
2019-05-06T12:02:03.215Z,17.40
2019-05-06T12:04:33.579Z,17.40
2019-05-06T12:07:11.156Z,17.00
2019-05-06T12:09:36.013Z,17.00
2019-05-06T12:12:06.549Z,17.20
2019-05-06T12:14:36.911Z,17.30
2019-05-06T12:17:07.358Z,17.30
2019-05-06T12:19:37.709Z,17.10
2019-05-06T12:22:08.232Z,16.90
2019-05-06T12:24:38.602Z,17.20
2019-05-06T12:27:09.024Z,17.40
2019-05-06T12:29:39.380Z,17.40
2019-05-06T12:32:14.146Z,17.20
2019-05-06T12:34:44.712Z,17.30
2019-05-06T12:37:16.639Z,17.20
2019-05-06T12:39:48.642Z,17.00
2019-05-06T12:42:26.406Z,16.80
2019-05-06T12:44:58.394Z,16.90
2019-05-06T12:47:36.134Z,17.10
2019-05-06T12:50:07.352Z,17.30
2019-05-06T12:52:37.778Z,17.20
2019-05-06T12:55:18.354Z,17.20
2019-05-06T12:57:43.031Z,17.00
2019-05-06T13:00:14.380Z,17.10
2019-05-06T13:02:44.794Z,17.20
2019-05-06T13:05:15.700Z,17.40
2019-05-06T13:07:47.437Z,17.40
2019-05-06T13:10:19.695Z,17.50
2019-05-06T13:12:54.090Z,17.70
2019-05-06T13:15:24.598Z,17.70
2019-05-06T13:17:55.170Z,17.50
2019-05-06T13:20:25.690Z,17.60
2019-05-06T13:23:09.897Z,17.50
2019-05-06T13:25:42.042Z,17.70
2019-05-06T13:28:12.886Z,17.90
2019-05-06T13:30:43.630Z,18.20
2019-05-06T13:33:35.411Z,18.30
2019-05-06T13:36:06.093Z,18.20
2019-05-06T13:38:36.445Z,18.10
2019-05-06T13:41:06.847Z,17.90
2019-05-06T13:43:38.861Z,17.70
2019-05-06T13:46:20.279Z,17.80
2019-05-06T13:49:02.765Z,18.00
2019-05-06T13:51:36.668Z,18.20
2019-05-06T13:54:07.114Z,18.20
2019-05-06T13:56:37.493Z,18.30
2019-05-06T13:59:07.921Z,18.30
2019-05-06T14:01:43.967Z,17.90
2019-05-06T14:04:16.358Z,17.80
2019-05-06T14:06:46.733Z,18.00
2019-05-06T14:09:28.636Z,17.90
2019-05-06T14:11:49.214Z,18.00
2019-05-06T14:14:19.578Z,17.90
2019-05-06T14:16:50.008Z,18.00
2019-05-06T14:19:22.366Z,18.00
2019-05-06T14:21:52.561Z,18.00
2019-05-06T14:24:22.994Z,18.10
2019-05-06T14:27:07.296Z,18.20
2019-05-06T14:29:39.231Z,17.90
2019-05-06T14:32:12.258Z,17.90
2019-05-06T14:34:43.323Z,18.20
2019-05-06T14:37:14.504Z,18.10
2019-05-06T14:39:53.645Z,18.10
2019-05-06T14:42:18.487Z,18.20
2019-05-06T14:44:48.870Z,18.40
2019-05-06T14:47:23.115Z,18.50
2019-05-06T14:49:53.159Z,18.60
2019-05-06T14:52:23.784Z,18.40
2019-05-06T14:54:55.730Z,18.30
2019-05-06T14:57:26.763Z,18.30
2019-05-06T14:59:57.143Z,18.30
2019-05-06T15:02:28.467Z,18.40
2019-05-06T15:04:58.974Z,18.30
2019-05-06T15:07:29.439Z,18.40
2019-05-06T15:10:18.158Z,18.30
2019-05-06T15:12:33.454Z,18.20
2019-05-06T15:15:08.408Z,18.40
2019-05-06T15:17:38.846Z,18.50
2019-05-06T15:20:12.116Z,18.50
2019-05-06T15:22:42.431Z,18.40
2019-05-06T15:25:13.139Z,18.50
2019-05-06T15:27:43.611Z,18.40
2019-05-06T15:30:33.681Z,18.50
2019-05-06T15:33:05.229Z,18.60
2019-05-06T15:35:43.115Z,18.50
2019-05-06T15:38:15.234Z,18.40
2019-05-06T15:40:45.593Z,18.40
2019-05-06T15:43:16.028Z,18.60
2019-05-06T15:45:46.406Z,18.60
2019-05-06T15:48:16.947Z,18.50
2019-05-06T15:50:47.318Z,18.50
2019-05-06T15:53:19.180Z,18.40
2019-05-06T15:55:49.189Z,18.40
2019-05-06T15:58:19.442Z,18.30
2019-05-06T16:00:50.491Z,18.30
2019-05-06T16:03:22.704Z,18.40
2019-05-06T16:05:55.204Z,18.30
2019-05-06T16:08:26.535Z,18.30
2019-05-06T16:10:58.803Z,18.20
2019-05-06T16:13:29.030Z,18.10
2019-05-06T16:15:59.469Z,18.20
2019-05-06T16:18:29.893Z,18.40
2019-05-06T16:21:02.739Z,18.40
2019-05-06T16:23:33.967Z,18.30
2019-05-06T16:26:04.382Z,18.00
2019-05-06T16:28:34.810Z,18.00
2019-05-06T16:31:05.340Z,18.00
2019-05-06T16:33:35.777Z,18.10
2019-05-06T16:36:06.224Z,18.20
2019-05-06T16:38:36.655Z,18.10
2019-05-06T16:41:12.837Z,18.10
2019-05-06T16:43:43.346Z,18.20
2019-05-06T16:46:14.474Z,18.20
2019-05-06T16:48:45.442Z,18.20
2019-05-06T16:51:16.272Z,18.20
2019-05-06T16:53:46.703Z,17.90
2019-05-06T16:56:22.170Z,17.90
2019-05-06T16:58:54.439Z,17.60
2019-05-06T17:01:24.802Z,17.70
2019-05-06T17:04:03.182Z,17.70
2019-05-06T17:06:35.434Z,17.70
2019-05-06T17:09:19.878Z,17.60
2019-05-06T17:11:42.675Z,17.60
2019-05-06T17:14:13.518Z,17.60
2019-05-06T17:16:44.964Z,17.50
2019-05-06T17:19:15.396Z,17.50
2019-05-06T17:21:48.357Z,17.50
2019-05-06T17:24:17.817Z,17.50
2019-05-06T17:26:48.199Z,17.40
2019-05-06T17:29:34.926Z,17.40
2019-05-06T17:32:06.870Z,17.30
2019-05-06T17:34:38.871Z,17.20
2019-05-06T17:37:37.090Z,17.00
2019-05-06T17:40:19.045Z,17.00
2019-05-06T17:42:50.183Z,16.80
2019-05-06T17:45:43.019Z,16.60
2019-05-06T17:48:23.233Z,16.50
2019-05-06T17:51:13.745Z,16.30
2019-05-06T17:53:48.319Z,16.10
2019-05-06T17:56:18.765Z,16.00
2019-05-06T17:58:49.127Z,15.90
2019-05-06T18:01:23.281Z,15.80
2019-05-06T18:03:54.316Z,15.70
2019-05-06T18:06:24.743Z,15.50
2019-05-06T18:08:55.213Z,15.40
2019-05-06T18:11:25.679Z,15.30
2019-05-06T18:13:56.053Z,15.20
2019-05-06T18:16:26.462Z,15.10
2019-05-06T18:18:56.823Z,15.00
2019-05-06T18:21:27.236Z,14.90
2019-05-06T18:23:57.682Z,14.80
2019-05-06T18:26:28.110Z,14.70
2019-05-06T18:28:58.607Z,14.60
2019-05-06T18:31:29.034Z,14.40
2019-05-06T18:33:59.463Z,14.30
2019-05-06T18:36:29.915Z,14.20
2019-05-06T18:39:00.360Z,14.00
2019-05-06T18:41:32.924Z,13.90
2019-05-06T18:44:03.475Z,13.70
2019-05-06T18:46:33.894Z,13.70
2019-05-06T18:49:04.354Z,13.60
2019-05-06T18:51:34.781Z,13.60
2019-05-06T18:54:05.157Z,13.40
2019-05-06T18:56:35.586Z,13.30
2019-05-06T18:59:05.943Z,13.10
2019-05-06T19:01:36.478Z,13.00
2019-05-06T19:04:14.192Z,12.70
2019-05-06T19:06:44.619Z,12.50
2019-05-06T19:09:25.386Z,12.20
2019-05-06T19:11:55.800Z,12.00
2019-05-06T19:14:26.190Z,12.00
2019-05-06T19:16:56.616Z,11.90
2019-05-06T19:19:26.998Z,11.90
2019-05-06T19:21:57.442Z,11.70
2019-05-06T19:24:27.822Z,11.60
2019-05-06T19:26:58.204Z,11.50
2019-05-06T19:29:28.654Z,11.40
2019-05-06T19:31:59.034Z,11.30
2019-05-06T19:34:29.569Z,11.30
2019-05-06T19:37:02.279Z,11.10
2019-05-06T19:39:33.030Z,11.00
2019-05-06T19:42:05.187Z,11.00
2019-05-06T19:44:36.707Z,10.90
2019-05-06T19:47:07.073Z,10.90
2019-05-06T19:49:37.527Z,10.80
2019-05-06T19:52:07.906Z,10.90
2019-05-06T19:54:38.335Z,11.40
2019-05-06T19:57:08.707Z,11.70
2019-05-06T19:59:39.138Z,12.20
2019-05-06T20:02:09.582Z,12.50
2019-05-06T20:04:43.988Z,12.60
2019-05-06T20:07:15.054Z,12.70
2019-05-06T20:09:56.327Z,12.50
2019-05-06T20:12:28.323Z,12.40
2019-05-06T20:15:16.223Z,12.70
2019-05-06T20:17:47.771Z,12.80
2019-05-06T20:20:18.219Z,12.90
2019-05-06T20:22:48.639Z,12.80
2019-05-06T20:25:19.064Z,12.70
2019-05-06T20:27:49.499Z,12.50
2019-05-06T20:30:21.779Z,12.50
2019-05-06T20:32:53.302Z,12.50
2019-05-06T20:35:23.678Z,12.60
2019-05-06T20:37:54.137Z,12.60
2019-05-06T20:40:24.511Z,12.50
2019-05-06T20:42:54.956Z,12.30
2019-05-06T20:45:25.329Z,12.40
2019-05-06T20:47:55.755Z,12.50
2019-05-06T20:50:27.372Z,12.30
2019-05-06T20:52:57.813Z,12.00
2019-05-06T20:55:28.251Z,11.70
2019-05-06T20:57:58.665Z,11.30
2019-05-06T21:00:29.212Z,11.00
2019-05-06T21:02:59.650Z,11.00
2019-05-06T21:05:32.200Z,10.90
2019-05-06T21:08:02.382Z,10.90
2019-05-06T21:10:33.137Z,10.80
2019-05-06T21:13:04.839Z,10.80
2019-05-06T21:15:35.279Z,10.70
2019-05-06T21:18:05.643Z,10.90
2019-05-06T21:20:36.007Z,11.10
2019-05-06T21:23:06.430Z,10.80
2019-05-06T21:25:36.804Z,10.60
2019-05-06T21:28:07.246Z,10.40
2019-05-06T21:30:37.610Z,10.20
2019-05-06T21:33:08.072Z,10.10
2019-05-06T21:35:38.435Z,9.80
2019-05-06T21:38:08.863Z,9.80
2019-05-06T21:40:39.223Z,9.60
2019-05-06T21:43:09.655Z,9.60
2019-05-06T21:45:42.220Z,9.80
2019-05-06T21:48:13.663Z,9.70
2019-05-06T21:50:44.304Z,9.60
2019-05-06T21:53:14.920Z,9.40
2019-05-06T21:55:46.670Z,9.40
2019-05-06T21:58:17.089Z,9.40
2019-05-06T22:00:49.481Z,9.40
2019-05-06T22:03:20.005Z,9.30
2019-05-06T22:05:54.338Z,9.10
2019-05-06T22:08:23.755Z,9.00
2019-05-06T22:10:53.845Z,8.90
2019-05-06T22:13:25.857Z,8.80
2019-05-06T22:15:57.974Z,8.90
2019-05-06T22:18:30.909Z,8.80
2019-05-06T22:21:13.441Z,8.90
2019-05-06T22:23:51.064Z,8.80
2019-05-06T22:26:23.256Z,8.80
2019-05-06T22:28:53.968Z,8.50
2019-05-06T22:31:25.203Z,8.50
2019-05-06T22:33:55.565Z,8.50
2019-05-06T22:36:26.095Z,8.60
2019-05-06T22:38:56.525Z,8.60
2019-05-06T22:41:27.008Z,8.90
2019-05-06T22:43:57.428Z,8.70
2019-05-06T22:46:27.894Z,8.70
2019-05-06T22:48:58.342Z,8.60
2019-05-06T22:51:28.700Z,8.60
2019-05-06T22:53:59.123Z,8.60
2019-05-06T22:56:29.488Z,8.60
2019-05-06T22:58:59.953Z,8.60
2019-05-06T23:01:37.881Z,8.50
2019-05-06T23:04:09.217Z,8.80
2019-05-06T23:06:39.572Z,8.80
2019-05-06T23:09:10.290Z,9.00
2019-05-06T23:11:42.444Z,9.20
2019-05-06T23:14:27.611Z,9.50
2019-05-06T23:16:44.693Z,9.80
2019-05-06T23:19:15.115Z,10.00
2019-05-06T23:21:45.474Z,10.10
2019-05-06T23:24:15.890Z,10.00
2019-05-06T23:26:46.317Z,10.00
2019-05-06T23:29:16.690Z,10.10
2019-05-06T23:31:47.210Z,10.30
2019-05-06T23:34:17.571Z,10.50
2019-05-06T23:37:02.462Z,10.60
2019-05-06T23:40:12.830Z,10.60
2019-05-06T23:43:19.482Z,10.70
2019-05-06T23:46:27.206Z,10.80
2019-05-06T23:49:33.942Z,10.80
2019-05-06T23:52:40.568Z,10.80
2019-05-06T23:55:47.051Z,10.50
2019-05-06T23:58:16.283Z,10.30
